Sitka Rocky Gutierrez Airport

Date: 2024-06-11 04:56:00Z

Type: SPECI

Weather: Light Rain

Winds: 230° at 6 kts

Visibility: 2.5

Ceiling (AGL FT): Clouds OVERCAST at 500, BROKEN at 4500, OVERCAST at 6000, FEW at 2000

RAW METAR: PASI 110456Z 23006KT 2 1/2SM -RA BR OVC005 09/08 A2983 RMK AO2 P0000 T00940078

project-image